Time;durP1;ratioP1;P1;durP2;ratioP2;P2;SDS_P1;SDS_P2;PMS_P1;PMS_P2;Temp;Humidity;BMP_temperature;BMP_pressure;BME280_temperature;BME280_humidity;BME280_pressure;Samples;Min_cycle;Max_cycle;Signal;HPM_P1;HPM_P2
2022/01/29 00:00:00;;;;;;;4.40;2.37;;;;;;;3.86;84.70;101368.34;1874013;76;21502;-58
2022/01/29 00:02:29;;;;;;;4.80;2.33;;;;;;;3.72;83.55;101363.57;1874292;76;21605;-58
2022/01/29 00:04:58;;;;;;;2.65;1.62;;;;;;;3.69;83.41;101360.99;1874393;76;21570;-57
2022/01/29 00:07:26;;;;;;;4.58;1.55;;;;;;;3.66;85.05;101356.63;1896428;75;21469;-57
2022/01/29 00:10:02;;;;;;;4.70;2.05;;;;;;;3.63;85.69;101360.56;1906724;75;21131;-58
2022/01/29 00:12:25;;;;;;;5.25;2.37;;;;;;;3.62;85.29;101356.66;1906601;75;21026;-57
2022/01/29 00:14:54;;;;;;;6.37;2.37;;;;;;;3.62;84.89;101370.98;1883401;75;21506;-58
2022/01/29 00:17:23;;;;;;;4.67;1.82;;;;;;;3.68;85.16;101348.83;1874268;76;21217;-58
2022/01/29 00:19:52;;;;;;;4.87;1.92;;;;;;;3.71;84.24;101339.72;1875653;75;21040;-57
2022/01/29 00:22:20;;;;;;;4.67;2.72;;;;;;;3.75;84.06;101342.74;1866990;77;21044;-57
2022/01/29 00:24:49;;;;;;;5.05;2.65;;;;;;;3.75;83.63;101353.16;1866561;77;21080;-58
2022/01/29 00:27:20;;;;;;;3.55;2.12;;;;;;;3.81;82.12;101349.23;1866506;77;21564;-59
2022/01/29 00:29:48;;;;;;;3.30;1.85;;;;;;;3.84;82.54;101351.84;1866582;77;21024;-58
2022/01/29 00:32:17;;;;;;;4.72;2.20;;;;;;;3.83;82.50;101355.31;1866763;75;21118;-58
2022/01/29 00:34:46;;;;;;;2.67;1.62;;;;;;;3.82;83.17;101343.62;1866567;77;21122;-58
2022/01/29 00:37:14;;;;;;;4.20;2.47;;;;;;;3.79;83.57;101332.74;1866555;77;20992;-58
2022/01/29 00:39:43;;;;;;;6.72;2.37;;;;;;;3.80;81.96;101349.23;1866617;77;21475;-58
2022/01/29 00:42:12;;;;;;;6.10;2.10;;;;;;;3.82;81.93;101339.27;1866778;77;21497;-58
2022/01/29 00:44:40;;;;;;;3.58;2.27;;;;;;;3.88;81.38;101345.34;1868612;77;21135;-57
2022/01/29 00:47:09;;;;;;;4.80;2.40;;;;;;;3.93;79.52;101332.73;1868663;77;21504;-58
2022/01/29 00:49:38;;;;;;;3.98;1.80;;;;;;;3.99;80.35;101342.27;1868733;77;21520;-57
2022/01/29 00:52:07;;;;;;;3.47;1.85;;;;;;;4.01;81.05;101323.59;1868615;77;21069;-57
2022/01/29 00:54:35;;;;;;;4.22;1.50;;;;;;;3.99;80.65;101320.98;1868568;77;21570;-58
2022/01/29 00:57:05;;;;;;;5.08;2.22;;;;;;;4.01;81.50;101311.86;1868986;77;21420;-56
2022/01/29 00:59:34;;;;;;;4.22;2.17;;;;;;;3.99;82.40;101308.41;1870529;77;21473;-56
2022/01/29 01:02:03;;;;;;;4.50;2.12;;;;;;;3.97;81.98;101307.55;1870522;77;21022;-56
2022/01/29 01:04:32;;;;;;;3.87;2.17;;;;;;;3.99;79.68;101313.16;1870612;77;21053;-56
2022/01/29 01:07:00;;;;;;;4.65;1.80;;;;;;;4.05;80.64;101292.73;1870365;77;21136;-58
2022/01/29 01:09:29;;;;;;;4.85;2.10;;;;;;;4.04;79.73;101285.81;1870616;77;21093;-57
2022/01/29 01:11:58;;;;;;;5.05;1.80;;;;;;;4.01;80.01;101281.90;1870525;77;21053;-56
2022/01/29 01:14:27;;;;;;;6.17;2.25;;;;;;;4.02;80.16;101288.41;1870531;77;21073;-57
2022/01/29 01:16:55;;;;;;;5.20;2.17;;;;;;;4.04;78.54;101279.30;1870392;77;21123;-57
2022/01/29 01:19:26;;;;;;;4.55;2.83;;;;;;;4.09;76.84;101259.27;1870473;77;21045;-58
2022/01/29 01:21:56;;;;;;;3.92;2.62;;;;;;;4.10;78.49;101264.92;1866666;76;21701;-57
2022/01/29 01:24:26;;;;;;;4.42;2.60;;;;;;;4.11;78.50;101280.12;1861264;77;21053;-57
2022/01/29 01:26:55;;;;;;;4.72;3.00;;;;;;;4.09;78.15;101261.88;1823906;79;21083;-56
2022/01/29 01:29:23;;;;;;;5.30;2.20;;;;;;;4.08;78.39;101266.67;1792684;80;21031;-56
2022/01/29 01:31:53;;;;;;;4.55;1.87;;;;;;;4.06;78.87;101272.33;1792738;80;21032;-57
2022/01/29 01:34:24;;;;;;;5.22;3.35;;;;;;;4.03;76.42;101269.73;1792685;80;21062;-57
2022/01/29 01:36:57;;;;;;;4.47;2.65;;;;;;;4.04;76.32;101271.48;1822982;79;21124;-57
2022/01/29 01:39:28;;;;;;;6.55;2.95;;;;;;;4.06;72.70;101286.67;1792137;80;21138;-57
2022/01/29 01:42:03;;;;;;;5.47;3.02;;;;;;;4.11;74.17;101284.03;1792018;80;21138;-57
2022/01/29 01:44:25;;;;;;;5.35;2.33;;;;;;;4.18;75.37;101278.78;1791740;80;21138;-57
2022/01/29 01:46:54;;;;;;;5.50;2.87;;;;;;;4.18;74.64;101273.56;1792607;80;21864;-57
2022/01/29 01:49:23;;;;;;;8.53;2.20;;;;;;;4.17;77.33;101285.30;1823043;79;21509;-58
2022/01/29 01:51:51;;;;;;;5.97;2.58;;;;;;;4.14;78.58;101286.19;1792601;80;21066;-59
2022/01/29 01:54:21;;;;;;;4.87;2.90;;;;;;;4.14;78.43;101273.60;1823017;79;21117;-59
2022/01/29 01:56:50;;;;;;;6.30;2.40;;;;;;;4.13;76.42;101270.14;1792616;80;21099;-57
2022/01/29 01:59:19;;;;;;;7.03;3.33;;;;;;;4.17;75.36;101263.14;1792578;80;21102;-57
2022/01/29 02:01:47;;;;;;;3.80;2.40;;;;;;;4.20;75.55;101259.23;1824460;79;21447;-57
2022/01/29 02:04:16;;;;;;;2.85;1.67;;;;;;;4.30;75.79;101270.06;1823915;79;21090;-57
2022/01/29 02:06:46;;;;;;;8.35;3.00;;;;;;;4.31;77.54;101265.70;1792714;80;21490;-57
2022/01/29 02:09:16;;;;;;;5.90;2.83;;;;;;;4.29;77.64;101281.80;1792823;80;21129;-57
2022/01/29 02:11:52;;;;;;;5.53;3.05;;;;;;;4.22;76.01;101277.92;1824386;79;21060;-57
2022/01/29 02:14:24;;;;;;;4.67;2.05;;;;;;;4.21;76.67;101302.69;1823975;79;21125;-56
2022/01/29 02:16:52;;;;;;;7.85;3.60;;;;;;;4.22;77.22;101277.03;1823834;79;21056;-57
2022/01/29 02:19:21;;;;;;;5.42;3.47;;;;;;;4.17;76.59;101282.28;1823874;79;21535;-57
2022/01/29 02:21:50;;;;;;;5.05;2.85;;;;;;;4.21;75.35;101277.92;1824534;77;21126;-57
2022/01/29 02:24:18;;;;;;;7.62;3.05;;;;;;;4.15;76.17;101300.08;1838955;78;21067;-58
2022/01/29 02:26:47;;;;;;;4.75;2.65;;;;;;;3.99;77.51;101286.25;1839067;78;21080;-57
2022/01/29 02:29:16;;;;;;;6.55;3.30;;;;;;;3.50;81.40;101294.16;1839043;78;21427;-56
2022/01/29 02:31:50;;;;;;;3.12;1.98;;;;;;;3.22;83.76;101292.87;1838606;78;21485;-57
2022/01/29 02:34:19;;;;;;;3.92;2.65;;;;;;;3.08;84.44;101302.84;1839125;78;21028;-58
2022/01/29 02:36:48;;;;;;;5.80;2.27;;;;;;;3.04;85.37;101272.49;1839117;78;21497;-58
2022/01/29 02:39:19;;;;;;;7.97;2.22;;;;;;;3.00;86.22;101290.24;1838928;78;21556;-57
2022/01/29 02:41:48;;;;;;;5.92;2.70;;;;;;;2.94;86.54;101247.33;1839107;78;21059;-57
2022/01/29 02:44:21;;;;;;;9.50;2.72;;;;;;;2.88;86.83;101277.24;1838681;78;21109;-56
2022/01/29 02:46:51;;;;;;;4.75;2.10;;;;;;;2.86;86.74;101259.47;1839000;78;21023;-56
2022/01/29 02:49:27;;;;;;;4.50;2.77;;;;;;;2.77;83.97;101255.12;1838879;78;21063;-56
2022/01/29 02:51:59;;;;;;;4.65;2.12;;;;;;;2.74;81.71;101278.95;1839222;78;21450;-56
2022/01/29 02:54:29;;;;;;;8.33;3.25;;;;;;;2.74;83.21;101272.45;1838646;78;21112;-56
2022/01/29 02:56:58;;;;;;;5.65;2.60;;;;;;;2.72;81.77;101243.83;1838992;78;21137;-56
2022/01/29 02:59:26;;;;;;;8.00;2.25;;;;;;;2.75;82.24;101266.36;1839040;78;21043;-57
2022/01/29 03:01:55;;;;;;;3.95;2.00;;;;;;;2.78;82.32;101259.88;1838919;78;21122;-56
2022/01/29 03:04:24;;;;;;;6.37;3.12;;;;;;;3.00;82.44;101256.42;1838627;78;21117;-57
2022/01/29 03:06:53;;;;;;;4.92;2.27;;;;;;;3.19;80.68;101282.45;1839098;78;21019;-57
2022/01/29 03:09:22;;;;;;;3.08;2.00;;;;;;;3.31;81.46;101274.64;1838996;78;21054;-56
2022/01/29 03:11:51;;;;;;;4.25;2.35;;;;;;;3.33;83.92;101279.41;1839092;78;21062;-55
2022/01/29 03:14:19;;;;;;;7.00;2.00;;;;;;;3.38;84.30;101285.48;1838561;78;21011;-56
2022/01/29 03:16:48;;;;;;;3.65;1.70;;;;;;;3.44;83.83;101275.06;1838944;78;21034;-56
2022/01/29 03:19:17;;;;;;;4.10;1.90;;;;;;;3.41;83.86;101259.47;1839097;78;21028;-57
2022/01/29 03:21:46;;;;;;;2.87;2.12;;;;;;;3.42;83.28;101263.78;1837504;78;21100;-57
2022/01/29 03:24:14;;;;;;;3.52;2.02;;;;;;;3.47;83.17;101254.23;1838183;78;21175;-56
2022/01/29 03:26:43;;;;;;;2.87;1.50;;;;;;;3.53;83.05;101244.69;1838881;78;21030;-55
2022/01/29 03:29:12;;;;;;;2.80;1.55;;;;;;;3.61;83.06;101258.55;1838955;78;21508;-56
2022/01/29 03:31:40;;;;;;;2.92;1.47;;;;;;;3.67;83.70;101259.83;1839114;78;21073;-58
2022/01/29 03:34:09;;;;;;;3.55;2.20;;;;;;;3.70;84.09;101238.99;1838979;78;21485;-56
2022/01/29 03:36:38;;;;;;;3.40;1.72;;;;;;;3.77;80.16;101251.13;1838940;78;21496;-57
2022/01/29 03:39:07;;;;;;;6.28;2.65;;;;;;;3.81;81.25;101260.66;1838847;78;21531;-58
2022/01/29 03:41:36;;;;;;;5.58;2.80;;;;;;;3.75;79.51;101269.81;1838997;78;21061;-57
2022/01/29 03:44:07;;;;;;;5.00;2.52;;;;;;;3.83;76.10;101257.62;1874079;76;21167;-57
2022/01/29 03:46:37;;;;;;;5.55;2.17;;;;;;;3.92;76.39;101276.72;1921533;74;21117;-57
2022/01/29 03:49:06;;;;;;;4.30;2.20;;;;;;;3.95;78.91;101262.39;1931354;74;21516;-57
2022/01/29 03:51:35;;;;;;;6.33;2.37;;;;;;;3.94;77.35;101254.13;1931266;74;21481;-57
2022/01/29 03:54:04;;;;;;;4.50;2.15;;;;;;;3.96;78.58;101279.29;1931161;74;21625;-57
2022/01/29 03:56:32;;;;;;;6.47;3.00;;;;;;;3.99;79.21;101262.80;1931444;74;21516;-57
2022/01/29 03:59:01;;;;;;;3.83;2.10;;;;;;;3.98;78.77;101284.50;1931500;74;21466;-57
2022/01/29 04:01:30;;;;;;;6.17;2.15;;;;;;;4.05;76.28;101281.01;1931369;74;21082;-57
2022/01/29 04:03:59;;;;;;;6.45;2.37;;;;;;;4.10;78.03;101280.56;1931266;74;21442;-56
2022/01/29 04:06:30;;;;;;;6.00;2.92;;;;;;;4.06;78.39;101291.44;1931438;74;21422;-58
2022/01/29 04:09:03;;;;;;;5.53;3.00;;;;;;;4.06;78.19;101291.44;1931340;74;21010;-57
2022/01/29 04:11:29;;;;;;;6.60;2.30;;;;;;;4.06;77.94;101278.84;1930897;74;21042;-58
2022/01/29 04:13:58;;;;;;;4.25;2.90;;;;;;;4.05;77.57;101297.50;1931253;74;21457;-57
2022/01/29 04:16:27;;;;;;;6.62;3.42;;;;;;;4.05;76.57;101292.73;1931557;74;21418;-57
2022/01/29 04:18:55;;;;;;;4.65;2.40;;;;;;;4.13;76.44;101268.84;1931150;74;21128;-57
2022/01/29 04:21:24;;;;;;;6.20;3.35;;;;;;;4.23;75.16;101308.31;1931328;74;21070;-57
2022/01/29 04:23:53;;;;;;;5.15;2.00;;;;;;;4.24;72.61;101320.48;1931343;74;21062;-57
2022/01/29 04:26:22;;;;;;;3.27;1.80;;;;;;;4.19;70.68;101332.66;1931215;74;21512;-57
2022/01/29 04:28:52;;;;;;;3.35;1.90;;;;;;;4.17;70.70;101319.18;1931324;74;21148;-57
2022/01/29 04:31:21;;;;;;;3.40;2.10;;;;;;;4.12;72.03;101319.66;1931196;74;21142;-57
2022/01/29 04:33:50;;;;;;;4.10;2.08;;;;;;;4.03;70.91;101320.55;1931433;74;21058;-57
2022/01/29 04:36:19;;;;;;;5.05;3.02;;;;;;;4.05;69.14;101310.53;1931337;74;21030;-57
2022/01/29 04:38:47;;;;;;;4.12;1.70;;;;;;;4.07;73.12;101320.95;1931331;74;21140;-58
2022/01/29 04:41:16;;;;;;;3.70;1.35;;;;;;;4.06;74.37;101316.19;1931283;74;21558;-57
2022/01/29 04:43:45;;;;;;;4.25;2.42;;;;;;;4.04;74.54;101320.98;1931155;74;21034;-59
2022/01/29 04:46:13;;;;;;;2.98;2.10;;;;;;;4.03;73.20;101306.20;1928043;74;21905;-57
2022/01/29 04:48:42;;;;;;;4.47;1.80;;;;;;;4.04;71.45;101319.69;1924204;74;21547;-57
2022/01/29 04:51:11;;;;;;;4.47;1.62;;;;;;;4.09;70.30;101340.06;1924351;74;21127;-57
2022/01/29 04:53:40;;;;;;;2.58;1.47;;;;;;;4.04;73.38;101329.66;1924126;74;21433;-57
2022/01/29 04:56:09;;;;;;;2.87;1.65;;;;;;;3.96;72.67;101333.15;1924221;74;21058;-57
2022/01/29 04:58:38;;;;;;;3.85;1.85;;;;;;;3.89;73.21;101366.16;1924141;74;21042;-57
2022/01/29 05:01:06;;;;;;;4.35;2.98;;;;;;;3.81;74.12;101359.66;1924187;74;21070;-57
2022/01/29 05:03:35;;;;;;;3.90;1.98;;;;;;;3.66;71.36;101357.08;1924239;74;21542;-57
2022/01/29 05:06:09;;;;;;;3.85;2.85;;;;;;;3.60;74.60;101362.30;1924239;74;21047;-57
2022/01/29 05:08:34;;;;;;;5.33;2.58;;;;;;;3.51;74.43;101355.80;1923483;74;21105;-57
2022/01/29 05:11:04;;;;;;;6.00;2.40;;;;;;;3.45;74.20;101381.39;1924208;74;21062;-57
2022/01/29 05:13:35;;;;;;;3.90;1.98;;;;;;;3.39;75.26;101393.94;1924181;74;21171;-57
2022/01/29 05:27:02;;;;;;;4.67;2.20;;;;;;;2.94;75.57;101329.27;1924167;74;21606;-58
2022/01/29 05:29:31;;;;;;;4.00;2.55;;;;;;;2.83;76.91;101416.37;1923833;74;21092;-58
2022/01/29 05:32:01;;;;;;;5.55;2.50;;;;;;;2.77;79.43;101412.90;1924081;74;21010;-57
2022/01/29 05:34:30;;;;;;;4.95;2.55;;;;;;;2.74;79.64;101430.64;1923290;74;21010;-57
2022/01/29 05:36:59;;;;;;;5.85;3.05;;;;;;;2.69;79.83;101421.53;1924209;74;21594;-57
2022/01/29 05:39:28;;;;;;;4.85;2.25;;;;;;;2.64;79.79;101415.44;1924099;74;21542;-57
2022/01/29 05:41:58;;;;;;;3.75;2.08;;;;;;;2.62;80.79;101406.77;1924166;74;21489;-57
2022/01/29 05:44:27;;;;;;;3.67;2.55;;;;;;;2.54;81.33;101419.28;1924163;74;21038;-58
2022/01/29 05:46:56;;;;;;;6.47;3.83;;;;;;;2.43;82.34;101440.02;1927030;74;21082;-58
2022/01/29 05:49:25;;;;;;;5.00;2.83;;;;;;;2.33;82.79;101439.55;1931351;74;21112;-57
2022/01/29 05:51:53;;;;;;;5.33;3.15;;;;;;;2.25;83.12;101418.67;1931487;74;21050;-58
2022/01/29 05:54:22;;;;;;;3.35;2.17;;;;;;;2.22;84.35;101424.73;1931385;74;21015;-58
2022/01/29 05:56:51;;;;;;;5.60;3.62;;;;;;;2.23;84.90;101432.09;1931140;74;21080;-56
2022/01/29 05:59:19;;;;;;;6.97;3.17;;;;;;;2.20;85.22;101417.36;1931242;74;21030;-56
2022/01/29 06:01:48;;;;;;;6.17;3.02;;;;;;;2.17;85.83;101419.94;1931236;74;21454;-56
2022/01/29 06:04:16;;;;;;;3.55;2.17;;;;;;;2.17;85.76;101417.34;1931259;74;21033;-58
2022/01/29 06:06:45;;;;;;;3.80;2.83;;;;;;;2.16;86.59;101420.81;1931233;74;21096;-57
2022/01/29 06:09:14;;;;;;;6.90;3.60;;;;;;;2.16;87.11;101422.11;1931317;74;21137;-59
2022/01/29 06:11:43;;;;;;;4.17;2.08;;;;;;;2.17;87.60;101416.03;1931152;74;21086;-58
2022/01/29 06:14:12;;;;;;;6.37;2.55;;;;;;;2.15;87.96;101421.66;1931324;74;21128;-57
2022/01/29 06:16:41;;;;;;;5.97;2.15;;;;;;;2.10;88.50;101416.45;1931280;74;21477;-57
2022/01/29 06:19:10;;;;;;;6.45;2.47;;;;;;;2.07;89.02;101425.95;1931504;74;21112;-58
2022/01/29 06:21:39;;;;;;;3.98;1.70;;;;;;;2.05;89.49;101415.98;1931487;74;21115;-57
2022/01/29 06:24:07;;;;;;;8.13;3.50;;;;;;;2.03;89.84;101436.74;1931245;74;21172;-57
2022/01/29 06:26:36;;;;;;;9.30;3.20;;;;;;;1.99;90.14;101421.11;1931357;74;21555;-58
2022/01/29 06:29:05;;;;;;;5.15;2.72;;;;;;;2.00;90.43;101413.77;1931258;74;21136;-57
2022/01/29 06:31:34;;;;;;;4.47;3.02;;;;;;;1.99;90.65;101417.21;1931373;74;21101;-57
2022/01/29 06:34:03;;;;;;;5.95;2.65;;;;;;;1.99;90.89;101415.91;1931390;74;21038;-56
2022/01/29 06:36:31;;;;;;;5.67;2.62;;;;;;;2.02;91.09;101425.03;1931255;74;21468;-57
2022/01/29 06:39:00;;;;;;;4.70;2.55;;;;;;;2.03;91.35;101411.17;1931311;74;21102;-58
2022/01/29 06:41:29;;;;;;;4.15;2.50;;;;;;;2.09;91.65;101406.04;1931585;74;21078;-57
2022/01/29 06:43:57;;;;;;;6.97;2.50;;;;;;;2.25;91.91;101403.09;1931590;74;21031;-57
2022/01/29 06:46:27;;;;;;;3.80;2.37;;;;;;;2.46;92.10;101400.61;1931489;74;21453;-57
2022/01/29 06:48:56;;;;;;;5.97;2.75;;;;;;;2.61;92.16;101394.61;1919202;74;21070;-58
2022/01/29 06:51:24;;;;;;;4.45;1.80;;;;;;;2.72;92.24;101396.41;1918142;75;21110;-57
2022/01/29 06:53:53;;;;;;;7.10;1.92;;;;;;;2.79;92.33;101398.17;1918119;75;21469;-57
2022/01/29 06:56:22;;;;;;;4.47;2.27;;;;;;;2.83;92.41;101396.00;1918215;75;21066;-57
2022/01/29 06:58:50;;;;;;;12.18;2.40;;;;;;;2.94;92.51;101390.41;1918182;75;21429;-57
2022/01/29 07:01:19;;;;;;;2.65;1.67;;;;;;;3.13;92.54;101399.55;1918214;75;21517;-57
2022/01/29 07:03:48;;;;;;;3.60;1.57;;;;;;;3.32;92.52;101392.23;1918005;75;21529;-56
2022/01/29 07:06:18;;;;;;;2.85;1.47;;;;;;;3.53;92.36;101393.11;1854353;76;21090;-57
2022/01/29 07:08:47;;;;;;;3.60;1.80;;;;;;;3.64;92.32;101388.77;1859756;76;21062;-56
2022/01/29 07:11:20;;;;;;;3.02;1.60;;;;;;;3.73;92.36;101395.72;1859646;77;21066;-56
2022/01/29 07:16:37;;;;;;;6.05;1.90;;;;;;;4.05;92.28;101394.38;1874705;76;21045;-57
2022/01/29 07:19:05;;;;;;;7.50;2.55;;;;;;;4.24;92.14;101398.69;1874299;76;21123;-58
2022/01/29 07:21:34;;;;;;;1.67;1.25;;;;;;;4.26;92.07;101396.09;1874133;76;21093;-57
2022/01/29 07:24:03;;;;;;;3.02;1.82;;;;;;;4.27;92.00;101412.59;1874123;76;20988;-58
2022/01/29 07:26:32;;;;;;;5.03;2.05;;;;;;;4.31;91.93;101419.52;1874000;76;21127;-58
2022/01/29 07:29:01;;;;;;;1.60;1.12;;;;;;;4.35;91.85;101416.03;1874015;76;21000;-58
2022/01/29 07:31:30;;;;;;;5.37;1.90;;;;;;;4.37;91.70;101410.37;1874056;76;21071;-58
2022/01/29 07:33:58;;;;;;;2.70;1.22;;;;;;;4.46;91.55;101419.47;1873721;76;21029;-58
2022/01/29 07:36:27;;;;;;;4.03;1.60;;;;;;;4.53;91.46;101425.55;1874043;76;21048;-58
2022/01/29 07:38:56;;;;;;;3.27;2.05;;;;;;;4.60;91.37;101406.41;1874096;76;21027;-60
2022/01/29 07:41:25;;;;;;;7.55;1.82;;;;;;;4.66;91.19;101427.68;1873981;76;21506;-58
2022/01/29 07:43:53;;;;;;;3.70;2.20;;;;;;;4.69;90.94;101434.20;1874159;76;21454;-58
2022/01/29 07:46:22;;;;;;;4.50;1.92;;;;;;;4.69;90.83;101436.36;1873880;76;21487;-58
2022/01/29 07:48:51;;;;;;;5.00;1.87;;;;;;;4.70;90.78;101441.14;1874041;76;21548;-58
2022/01/29 07:51:20;;;;;;;2.52;1.60;;;;;;;4.81;90.75;101440.66;1874177;76;21510;-59
2022/01/29 07:53:49;;;;;;;6.42;1.50;;;;;;;5.01;90.60;101438.83;1873965;76;21138;-58
2022/01/29 07:56:20;;;;;;;4.15;1.67;;;;;;;5.15;90.41;101448.35;1873690;76;21549;-58
2022/01/29 07:58:48;;;;;;;4.78;1.82;;;;;;;5.17;90.37;101462.27;1873971;76;21023;-57
2022/01/29 08:01:18;;;;;;;3.72;1.55;;;;;;;5.22;90.32;101441.78;1805016;79;21144;-58
2022/01/29 08:03:48;;;;;;;2.47;1.52;;;;;;;5.30;90.29;101443.03;1842586;78;21474;-57
2022/01/29 08:06:19;;;;;;;2.62;1.40;;;;;;;5.22;90.27;101449.61;1853274;77;21405;-58
2022/01/29 08:08:47;;;;;;;3.00;1.42;;;;;;;5.14;90.24;101451.83;1853651;77;21028;-57
2022/01/29 08:11:17;;;;;;;2.42;1.32;;;;;;;4.99;90.00;101444.49;1853674;77;21111;-57
2022/01/29 08:13:48;;;;;;;3.20;1.65;;;;;;;4.80;88.13;101444.16;1853556;77;20997;-57
2022/01/29 08:16:17;;;;;;;3.20;1.80;;;;;;;4.74;89.29;101440.25;1847535;77;21534;-58
2022/01/29 08:18:46;;;;;;;1.75;1.17;;;;;;;4.59;87.53;101440.75;1844477;78;21150;-58
2022/01/29 08:21:17;;;;;;;2.92;1.62;;;;;;;4.53;87.31;101447.27;1844338;78;21049;-57
2022/01/29 08:23:46;;;;;;;3.35;1.92;;;;;;;4.50;88.40;101443.39;1844478;78;21021;-57
2022/01/29 08:26:15;;;;;;;5.05;1.82;;;;;;;4.48;88.48;101439.89;1844350;78;21146;-57
2022/01/29 08:28:44;;;;;;;3.75;1.62;;;;;;;4.41;88.41;101429.07;1844328;78;21037;-57
2022/01/29 08:31:12;;;;;;;3.02;1.40;;;;;;;4.38;88.66;101442.11;1843980;78;21527;-57
2022/01/29 08:33:42;;;;;;;2.37;2.08;;;;;;;4.32;88.96;101441.69;1843968;78;21591;-57
2022/01/29 08:36:11;;;;;;;3.52;2.15;;;;;;;4.24;88.44;101422.56;1843793;77;21085;-57
2022/01/29 08:38:40;;;;;;;3.92;1.98;;;;;;;4.17;88.30;101432.16;1843863;78;21079;-57
2022/01/29 08:41:08;;;;;;;4.28;1.92;;;;;;;4.13;88.42;101435.64;1843681;78;21105;-57
2022/01/29 08:43:37;;;;;;;6.90;4.55;;;;;;;4.10;88.88;101444.76;1843648;78;21062;-59
2022/01/29 08:46:06;;;;;;;20.50;2.17;;;;;;;4.03;88.96;101435.20;1843774;78;21477;-57
2022/01/29 08:48:34;;;;;;;5.47;2.45;;;;;;;4.01;89.24;101433.04;1843785;78;21074;-57
2022/01/29 08:51:03;;;;;;;5.70;2.90;;;;;;;4.00;89.47;101442.60;1843746;78;21560;-57
2022/01/29 08:53:34;;;;;;;6.65;2.98;;;;;;;4.04;89.63;101436.95;1843612;78;21564;-57
2022/01/29 08:56:03;;;;;;;4.50;3.10;;;;;;;4.10;89.85;101437.38;1843751;78;21051;-58
2022/01/29 08:58:32;;;;;;;6.67;2.60;;;;;;;4.12;90.12;101433.03;1843747;78;21580;-58
2022/01/29 09:01:07;;;;;;;6.78;2.70;;;;;;;4.14;90.19;101432.15;1843840;78;21114;-57
2022/01/29 09:03:32;;;;;;;5.20;2.72;;;;;;;4.10;90.11;101429.13;1843267;77;21117;-57
2022/01/29 09:06:00;;;;;;;7.25;2.83;;;;;;;4.07;90.10;101430.41;1843746;78;21086;-57
2022/01/29 09:08:30;;;;;;;5.62;2.92;;;;;;;4.02;90.19;101433.05;1843667;78;21124;-57
2022/01/29 09:10:58;;;;;;;5.35;3.10;;;;;;;3.93;90.23;101434.77;1843785;78;21625;-57
2022/01/29 09:13:28;;;;;;;5.97;3.17;;;;;;;3.89;90.28;101417.41;1843731;78;21529;-58
2022/01/29 09:15:57;;;;;;;6.37;3.08;;;;;;;3.83;90.30;101398.73;1843767;77;21550;-57
2022/01/29 09:18:27;;;;;;;6.58;3.37;;;;;;;3.75;90.28;101400.49;1843642;77;21035;-58
2022/01/29 09:20:55;;;;;;;7.62;3.77;;;;;;;3.70;90.29;101400.92;1843725;78;21030;-58
2022/01/29 09:23:24;;;;;;;7.15;3.70;;;;;;;3.60;90.40;101421.75;1843508;78;21529;-58
2022/01/29 09:25:53;;;;;;;8.48;3.45;;;;;;;3.51;90.55;101419.59;1843606;78;21169;-57
2022/01/29 09:28:23;;;;;;;5.97;2.90;;;;;;;3.47;90.58;101402.64;1843549;78;21602;-56
2022/01/29 09:30:52;;;;;;;5.20;2.58;;;;;;;3.43;90.63;101397.01;1843623;78;21630;-58
2022/01/29 09:33:21;;;;;;;8.33;2.87;;;;;;;3.43;90.84;101402.22;1843740;78;21156;-57
2022/01/29 09:35:50;;;;;;;3.62;1.80;;;;;;;3.44;91.01;101411.75;1843516;78;21027;-56
2022/01/29 09:38:19;;;;;;;5.60;2.27;;;;;;;3.45;90.84;101423.91;1843563;78;21120;-58
2022/01/29 09:40:48;;;;;;;5.72;2.87;;;;;;;3.47;90.95;101412.20;1843881;78;21079;-57
2022/01/29 09:43:18;;;;;;;5.12;2.95;;;;;;;3.54;91.05;101400.03;1844196;78;21029;-57
2022/01/29 09:45:49;;;;;;;7.83;3.10;;;;;;;3.59;91.10;101404.81;1844259;78;21044;-57
2022/01/29 09:48:21;;;;;;;10.40;3.72;;;;;;;3.63;91.09;101403.95;1844169;78;21033;-58
2022/01/29 09:50:52;;;;;;;5.58;3.17;;;;;;;3.65;90.98;101407.41;1844298;78;21103;-57
2022/01/29 09:53:21;;;;;;;5.70;2.70;;;;;;;3.63;90.75;101415.25;1844341;78;20985;-57
2022/01/29 09:55:50;;;;;;;6.35;2.58;;;;;;;3.56;91.06;101411.31;1844401;78;21021;-58
2022/01/29 09:58:19;;;;;;;4.65;2.60;;;;;;;3.50;91.20;101417.83;1844345;78;21479;-58
2022/01/29 10:00:48;;;;;;;6.53;2.52;;;;;;;3.50;91.31;101421.73;1844009;78;21032;-58
2022/01/29 10:03:19;;;;;;;6.33;4.72;;;;;;;3.50;91.20;101408.72;1842467;78;21054;-57
2022/01/29 10:05:51;;;;;;;8.73;5.30;;;;;;;3.61;90.70;101392.22;1842138;78;21177;-56
2022/01/29 10:08:22;;;;;;;14.87;12.20;;;;;;;3.75;91.11;101401.80;1843725;78;21489;-57
2022/01/29 10:10:53;;;;;;;11.22;8.55;;;;;;;4.08;91.25;101383.95;1843714;78;21047;-57
2022/01/29 10:13:36;;;;;;;12.68;8.50;;;;;;;4.84;90.80;101391.08;1843639;78;21058;-58
2022/01/29 10:16:08;;;;;;;11.60;6.65;;;;;;;5.32;90.55;101394.27;1843872;78;21042;-57
2022/01/29 10:18:37;;;;;;;10.20;3.77;;;;;;;5.63;90.33;101390.58;1852998;77;21102;-58
2022/01/29 10:21:12;;;;;;;6.62;2.92;;;;;;;7.54;85.44;101392.67;1852877;77;21488;-58
2022/01/29 10:23:41;;;;;;;5.37;3.45;;;;;;;8.14;82.92;101393.39;1852305;77;21012;-58
2022/01/29 10:26:10;;;;;;;6.00;3.25;;;;;;;7.35;84.64;101399.07;1855798;77;21149;-59
2022/01/29 10:28:40;;;;;;;6.58;2.77;;;;;;;6.66;86.47;101398.69;1853493;77;21037;-58
2022/01/29 10:31:09;;;;;;;5.20;2.72;;;;;;;6.21;87.05;101389.19;1853602;77;21099;-58
2022/01/29 10:33:44;;;;;;;5.58;2.55;;;;;;;5.87;87.64;101396.03;1853649;77;21004;-58
2022/01/29 10:36:22;;;;;;;10.08;3.70;;;;;;;5.66;88.29;101416.66;1853413;77;21057;-58
2022/01/29 10:38:57;;;;;;;16.07;8.50;;;;;;;5.55;88.92;101418.05;1853112;77;21094;-57
2022/01/29 10:41:28;;;;;;;19.67;9.85;;;;;;;5.44;89.41;101429.02;1853284;77;21161;-58
2022/01/29 10:44:19;;;;;;;13.05;6.17;;;;;;;5.34;89.87;101431.69;1852816;77;21027;-58
2022/01/29 10:46:57;;;;;;;8.20;4.65;;;;;;;5.27;90.20;101428.67;1852755;77;21068;-58
2022/01/29 10:49:32;;;;;;;9.35;3.75;;;;;;;5.17;90.42;101441.38;1852825;77;21030;-58
2022/01/29 10:52:12;;;;;;;7.80;3.90;;;;;;;5.23;90.57;101441.33;1852935;77;21116;-58
2022/01/29 10:54:43;;;;;;;9.25;3.40;;;;;;;5.29;90.62;101439.98;1852924;77;21046;-62
2022/01/29 10:57:14;;;;;;;7.60;3.67;;;;;;;5.26;90.67;101437.41;1828682;78;21105;-57
2022/01/29 10:59:51;;;;;;;9.45;4.00;;;;;;;5.21;90.51;101437.86;1828783;78;21559;-58
2022/01/29 11:02:22;;;;;;;8.70;4.05;;;;;;;5.13;90.56;101442.27;1843454;77;21029;-56
2022/01/29 11:04:51;;;;;;;8.23;3.92;;;;;;;5.08;90.50;101449.25;1852820;77;21050;-57
2022/01/29 11:07:25;;;;;;;7.20;2.45;;;;;;;4.99;90.28;101440.58;1852819;77;21046;-59
2022/01/29 11:09:51;;;;;;;7.78;3.45;;;;;;;4.90;90.09;101444.98;1852154;77;21140;-57
2022/01/29 11:12:22;;;;;;;11.55;5.20;;;;;;;4.85;90.22;101454.15;1853841;77;21045;-59
2022/01/29 11:14:53;;;;;;;8.43;4.30;;;;;;;4.84;90.30;101451.09;1855064;77;21020;-59
2022/01/29 11:17:24;;;;;;;10.20;4.45;;;;;;;4.87;90.31;101451.50;1851659;77;21052;-59
2022/01/29 11:19:54;;;;;;;7.20;3.35;;;;;;;5.09;90.38;101454.89;1844253;77;21077;-58
2022/01/29 11:22:25;;;;;;;10.03;3.62;;;;;;;6.12;89.47;101447.25;1843919;78;21452;-58
2022/01/29 11:25:02;;;;;;;7.85;3.70;;;;;;;6.91;87.50;101447.23;1844252;78;21523;-58
2022/01/29 11:27:33;;;;;;;6.08;3.25;;;;;;;6.96;86.93;101449.36;1844190;78;21017;-58
2022/01/29 11:30:13;;;;;;;6.83;3.00;;;;;;;7.06;86.63;101449.24;1844301;77;21029;-58
2022/01/29 11:32:47;;;;;;;6.78;3.22;;;;;;;6.73;86.64;101448.77;1843998;78;21067;-58
2022/01/29 11:35:23;;;;;;;9.48;4.08;;;;;;;6.31;86.97;101447.08;1843807;78;21055;-58
2022/01/29 11:38:06;;;;;;;5.30;2.20;;;;;;;5.94;87.35;101448.69;1843654;78;21136;-58
2022/01/29 11:40:38;;;;;;;8.98;3.67;;;;;;;5.64;87.78;101442.80;1843916;78;21050;-58
2022/01/29 11:43:16;;;;;;;7.35;3.58;;;;;;;5.38;88.12;101446.45;1843519;78;21039;-57
2022/01/29 11:46:04;;;;;;;7.72;3.33;;;;;;;5.32;88.59;101450.41;1843711;78;21082;-57
2022/01/29 11:48:30;;;;;;;6.10;2.83;;;;;;;5.27;88.72;101453.48;1842161;77;21039;-59
2022/01/29 11:51:02;;;;;;;9.65;3.20;;;;;;;5.27;88.87;101461.32;1853290;76;21025;-58
2022/01/29 11:53:51;;;;;;;9.45;3.22;;;;;;;5.27;89.02;101457.41;1852380;76;21139;-59
2022/01/29 11:56:32;;;;;;;9.38;3.92;;;;;;;5.23;89.10;101455.25;1835516;77;21108;-58
2022/01/29 11:59:20;;;;;;;10.58;4.00;;;;;;;5.17;89.11;101455.73;1850439;77;21038;-57